Flight ASX419

  • Submitted By: Krzysztof H. Blaszkow
  • Departure Airport: Dublin (EIDW)
  • Arrival Airport: Cork Airport (EICK)
  • Aircraft: ATR 72-500 (SP-SCZ)
  • Flight Time: 01.03.31
  • Date Submitted: 12/20/2016
  • Route: OLONO Q52 CML W10 TISMO
  • Status: Accepted
Flight Details
Gross Revenue:
(71 load / € 55.00 per unit
€ 3,905.00
Fuel Cost:
(532.517 fuel used @ 0.45 / unit)
€ 239.63

Additional Log Information:

View Log

[22:08] - Flight 1 ATR 72-500 House Livery
[22:08] - Flight ASX419 is ready to depart EIDW with a final destination of EICK.
[22:08] - Parking Brake Applied
[22:08] - Boarding
[22:09] - ADF1 - 339.0
[22:09] - ADF2 - 371.0
[22:09] - NAV1 - 111.35
[22:09] - NAV2 - 111.35
[22:09] - COM1 - 122.80
[22:09] - COM2 - 125.27
[22:09] - Transponder - 2000
[22:11] - Beacon Light ON 6AGL
[22:15] - Logo Lights ON 6AGL
[22:16] - Navigation Lights ON 6AGL
[22:16] - Taxi Lights ON 6AGL
[22:16] - Parking Brake Released
[22:18] - Pushing Back from the gate
[22:18] - Engine 1 Started
[22:18] - Engine 2 Started
[22:20] - Taxiing to Runway
[22:22] - Landing Lights ON 6AGL
[22:22] - Taxi Lights OFF 6AGL
[22:22] - Strobe Lights ON 6AGL
[22:23] - NAV1 - 114.90
[22:25] - Taking Off with 71 passengers on board
[22:26] - Take off at 136kts, with a pitch of 6deg and 4317lbs of fuel on board
[22:26] - Wind Heading 320 | Wind Speed 2kts | Temperature 3 deg C
[22:26] - METAR Departure: EIDW 192200Z 31004KT 9999 FEW016 M00/M01 Q1025 NOSIG

[22:26] - Gear up at 351AGL
[22:26] - Climbing to TOC
[22:30] - AutoPilot Engaged at 6755AGL
[22:32] - NAV1 - 114.60
[22:32] - Landing Lights OFF 9000AGL
[22:34] - NAV2 - 109.90
[22:38] - TOC reached
[22:38] - Cruise started
[22:53] - NAV1 - 109.90
[22:53] - NAV1 - 114.60
[22:53] - TOD reached
[22:53] - Descending to destination
[22:55] - NAV1 - 109.90
[22:58] - Landing Lights ON 10358AGL
[23:02] - Landing Shortly
[23:04] - Flaps to position 1 at 2995ft and 168kts
[23:04] - Gear down at 2972AGL
[23:07] - AutoPilot Disengaged at 1257AGL
[23:08] - Landed at -88fpm. With 3232lbs of fuel onboard and a pitch angle of 3deg.
[23:08] - Wind Heading 318 | Wind Speed 3kts | Temperature 2 deg C
[23:08] - METAR Arrival: EICK 192230Z 32007KT 9999 FEW012 03/03 Q1026 NOSIG

[23:08] - Flaps to position 0
[23:09] - Taxiing to Gate
[23:09] - Landing Lights OFF 3AGL
[23:10] - Taxi Lights ON 3AGL
[23:10] - Strobe Lights OFF 3AGL
[23:11] - Parking Brake Applied
[23:11] - Arrived safely at EICK. We hope you enjoyed your flight!
[23:12] - Engine 1 Stopped
[23:12] - Engine 2 Stopped
[23:12] - Navigation Lights OFF 3AGL
[23:12] - Logo Lights OFF 3AGL
[23:12] - Taxi Lights OFF 3AGL
[23:13] - Flight 1 ATR 72-500 House Livery
[23:13] - MaxSim Rate: 1x
[23:13] - SiouxAcars ver: 1.0.1.2

Route Map